Time;durP1;ratioP1;P1;durP2;ratioP2;P2;SDS_P1;SDS_P2;PMS_P1;PMS_P2;Temp;Humidity;BMP_temperature;BMP_pressure;BME280_temperature;BME280_humidity;BME280_pressure;Samples;Min_cycle;Max_cycle;Signal;HPM_P1;HPM_P2
2021/03/27 00:00:43;;;;;;;50.90;23.17;;;;;;;0.79;95.31;98322.63;4999235;28;20029;-87
2021/03/27 00:03:20;;;;;;;48.85;23.75;;;;;;;0.68;96.57;98324.53;5002809;28;20026;-85
2021/03/27 00:06:12;;;;;;;40.33;19.55;;;;;;;0.63;95.35;98321.03;5009942;28;20053;-87
2021/03/27 00:08:47;;;;;;;41.70;19.58;;;;;;;0.55;96.80;98326.41;4999401;28;20025;-87
2021/03/27 00:11:30;;;;;;;37.13;19.10;;;;;;;0.42;97.81;98324.75;5008745;28;20082;-86
2021/03/27 00:14:08;;;;;;;37.70;19.15;;;;;;;0.41;98.66;98326.53;4998876;28;20090;-87
2021/03/27 00:16:46;;;;;;;39.83;18.77;;;;;;;0.46;97.53;98324.72;4991315;28;20029;-87
2021/03/27 00:19:36;;;;;;;37.03;19.30;;;;;;;0.47;97.69;98328.22;5014990;28;20121;-85
2021/03/27 00:22:27;;;;;;;35.80;18.23;;;;;;;0.44;97.91;98334.38;4998525;28;20026;-87
2021/03/27 00:24:56;;;;;;;37.55;19.00;;;;;;;0.40;98.28;98324.75;4998797;28;20087;-87
2021/03/27 00:27:25;;;;;;;41.17;19.85;;;;;;;0.47;97.26;98317.69;5032126;28;20033;-88
2021/03/27 00:29:56;;;;;;;77.10;34.15;;;;;;;0.46;96.63;98318.59;4998310;28;20470;-88
2021/03/27 00:32:24;;;;;;;68.47;29.40;;;;;;;0.47;96.85;98315.94;5014821;28;20393;-87
2021/03/27 00:34:54;;;;;;;60.58;28.58;;;;;;;0.54;96.78;98320.25;4998399;28;20033;-85
2021/03/27 00:37:22;;;;;;;67.70;29.98;;;;;;;0.51;95.59;98317.66;5014930;28;20076;-86
2021/03/27 00:39:52;;;;;;;71.60;34.28;;;;;;;0.62;96.25;98320.16;5015350;28;20037;-87
2021/03/27 00:42:29;;;;;;;86.22;38.60;;;;;;;0.52;96.44;98314.13;5015485;28;20489;-86
2021/03/27 00:45:00;;;;;;;61.67;28.30;;;;;;;0.47;95.84;98302.78;5014723;28;20026;-88
2021/03/27 00:47:28;;;;;;;50.13;23.70;;;;;;;0.49;96.14;98313.31;5014914;28;20116;-87
2021/03/27 00:50:08;;;;;;;46.55;23.20;;;;;;;0.39;96.53;98302.00;4998886;28;20045;-87
2021/03/27 00:52:39;;;;;;;46.03;22.63;;;;;;;0.39;96.14;98290.59;4998537;28;20045;-87
2021/03/27 00:55:09;;;;;;;48.90;24.30;;;;;;;0.46;96.44;98308.91;4999045;28;20386;-87
2021/03/27 00:57:39;;;;;;;46.92;24.38;;;;;;;0.33;97.86;98296.78;5014623;28;20025;-87
2021/03/27 01:00:04;;;;;;;49.58;23.25;;;;;;;0.31;99.05;98303.81;4998672;28;20033;-86
2021/03/27 01:02:30;;;;;;;46.78;24.08;;;;;;;0.37;97.91;98295.84;5014469;28;20064;-87
2021/03/27 01:04:58;;;;;;;54.38;25.58;;;;;;;0.37;98.19;98300.28;5016504;28;20025;-87
2021/03/27 01:07:24;;;;;;;47.33;25.50;;;;;;;0.42;98.01;98296.69;5002059;28;20048;-86
2021/03/27 01:09:57;;;;;;;52.55;25.67;;;;;;;0.36;97.95;98288.00;5002313;28;20029;-87
2021/03/27 01:12:35;;;;;;;52.58;24.98;;;;;;;0.24;99.31;98289.00;5002313;28;20108;-87
2021/03/27 01:15:11;;;;;;;53.78;25.65;;;;;;;0.20;99.89;98299.53;5019404;28;20033;-87
2021/03/27 01:17:41;;;;;;;67.05;30.85;;;;;;;0.13;100.00;98292.56;5002099;28;20030;-87
2021/03/27 01:20:29;;;;;;;72.45;29.98;;;;;;;0.24;100.00;98311.78;5017842;28;20061;-86
2021/03/27 01:22:55;;;;;;;61.05;28.95;;;;;;;0.15;100.00;98296.97;4994256;28;20477;-87
2021/03/27 01:25:27;;;;;;;65.95;29.63;;;;;;;0.22;99.57;98298.63;4998262;28;20116;-88
2021/03/27 01:27:57;;;;;;;65.75;29.85;;;;;;;0.26;99.94;98299.47;5002066;28;20079;-86
2021/03/27 01:30:34;;;;;;;67.95;31.67;;;;;;;0.25;99.75;98298.59;5001513;28;20463;-87
2021/03/27 01:33:14;;;;;;;74.15;32.30;;;;;;;0.21;99.71;98298.66;5021675;28;20095;-85
2021/03/27 01:35:43;;;;;;;73.47;32.35;;;;;;;0.16;100.00;98290.81;5002726;28;20116;-78
2021/03/27 01:38:36;;;;;;;72.35;33.80;;;;;;;0.15;100.00;98304.84;5036130;28;20025;-89
2021/03/27 01:41:10;;;;;;;58.65;28.30;;;;;;;0.12;100.00;98302.25;5030219;28;20040;-89
2021/03/27 01:43:59;;;;;;;63.45;29.70;;;;;;;0.14;100.00;98297.84;5002863;28;20500;-88
2021/03/27 01:46:47;;;;;;;73.97;33.05;;;;;;;0.11;100.00;98303.13;5002161;28;20037;-87
2021/03/27 01:49:22;;;;;;;73.03;33.00;;;;;;;0.06;100.00;98294.41;5018994;28;20397;-87
2021/03/27 01:52:03;;;;;;;74.95;35.17;;;;;;;-0.05;100.00;98291.00;5018006;28;20366;-88
2021/03/27 01:54:35;;;;;;;70.18;33.03;;;;;;;-0.07;100.00;98300.66;5017660;28;20120;-88
2021/03/27 01:57:10;;;;;;;72.90;32.97;;;;;;;-0.09;100.00;98302.41;5018453;28;20026;-88
2021/03/27 01:59:45;;;;;;;74.68;32.17;;;;;;;-0.08;100.00;98298.91;5002956;28;20037;-88
2021/03/27 02:02:35;;;;;;;65.85;31.88;;;;;;;-0.11;100.00;98304.19;5003480;28;20021;-88
2021/03/27 02:05:08;;;;;;;66.60;30.20;;;;;;;-0.12;100.00;98299.81;5001716;28;20025;-87
2021/03/27 02:08:00;;;;;;;64.25;29.73;;;;;;;-0.19;100.00;98306.88;5001696;28;20091;-89
2021/03/27 02:10:29;;;;;;;66.68;29.85;;;;;;;-0.22;100.00;98304.28;5015208;28;20091;-86
2021/03/27 02:12:57;;;;;;;62.78;26.70;;;;;;;-0.21;100.00;98313.00;5017517;28;20029;-88
2021/03/27 02:15:51;;;;;;;57.45;28.50;;;;;;;-0.22;100.00;98313.91;5035660;28;20029;-89
2021/03/27 02:18:24;;;;;;;76.45;28.95;;;;;;;-0.29;100.00;98314.84;4996963;28;20430;-88
2021/03/27 02:21:31;;;;;;;55.97;26.95;;;;;;;-0.41;100.00;98314.91;5009814;28;20592;-88
2021/03/27 02:24:00;;;;;;;48.33;24.75;;;;;;;-0.38;100.00;98312.28;5018309;28;20022;-88
2021/03/27 02:26:58;;;;;;;49.70;23.77;;;;;;;-0.44;100.00;98315.81;5018188;28;20069;-88
2021/03/27 02:29:31;;;;;;;49.80;23.15;;;;;;;-0.58;100.00;98315.00;5002179;28;20090;-88
2021/03/27 02:32:19;;;;;;;52.08;24.30;;;;;;;-0.66;100.00;98308.94;5019195;28;20025;-88
2021/03/27 02:35:09;;;;;;;46.92;22.92;;;;;;;-0.62;100.00;98314.19;5018819;28;20414;-88
2021/03/27 02:37:59;;;;;;;52.45;24.73;;;;;;;-0.64;100.00;98313.28;5018929;28;20033;-88
2021/03/27 02:40:31;;;;;;;65.97;29.40;;;;;;;-0.57;100.00;98309.75;5008197;28;20056;-88
2021/03/27 02:43:11;;;;;;;90.82;37.15;;;;;;;-0.60;100.00;98303.66;5002771;28;20028;-88
2021/03/27 02:45:43;;;;;;;80.93;34.20;;;;;;;-0.54;100.00;98314.13;5018802;28;20061;-88
2021/03/27 02:48:20;;;;;;;64.97;30.52;;;;;;;-0.50;100.00;98310.59;5019767;28;20025;-88
2021/03/27 02:51:08;;;;;;;78.55;31.08;;;;;;;-0.63;100.00;98309.78;5006599;28;20033;-87
2021/03/27 02:53:57;;;;;;;69.53;30.88;;;;;;;-0.57;100.00;98320.28;5008434;28;20032;-88
2021/03/27 02:56:35;;;;;;;64.43;28.50;;;;;;;-0.53;100.00;98321.13;4986164;28;20098;-87
2021/03/27 02:59:03;;;;;;;57.20;29.30;;;;;;;-0.64;100.00;98317.66;5025768;28;20025;-88
2021/03/27 03:01:46;;;;;;;64.47;31.25;;;;;;;-0.67;100.00;98321.19;5010868;28;20038;-88
2021/03/27 03:04:30;;;;;;;72.72;32.55;;;;;;;-0.58;100.00;98318.50;5002734;28;20037;-86
2021/03/27 03:07:27;;;;;;;72.30;34.13;;;;;;;-0.62;100.00;98322.06;5023297;28;20060;-87
2021/03/27 03:10:27;;;;;;;66.47;32.78;;;;;;;-0.66;100.00;98317.69;5023891;28;20095;-87
2021/03/27 03:13:16;;;;;;;72.28;33.05;;;;;;;-0.58;100.00;98326.41;5022265;28;20417;-88
2021/03/27 03:15:48;;;;;;;69.80;32.58;;;;;;;-0.55;100.00;98336.00;5007035;28;20040;-87
2021/03/27 03:18:15;;;;;;;;;;;;;;;-0.62;100.00;98329.06;5006626;28;20044;-87
2021/03/27 03:20:56;;;;;;;62.67;28.60;;;;;;;-0.66;100.00;98325.56;5040017;28;19913;-87
2021/03/27 03:23:42;;;;;;;73.40;33.85;;;;;;;-0.71;100.00;98335.22;5007061;28;20444;-87
2021/03/27 03:26:20;;;;;;;56.30;28.38;;;;;;;-0.70;100.00;98323.84;5000951;28;20029;-87
2021/03/27 03:29:03;;;;;;;56.28;27.25;;;;;;;-0.74;100.00;98327.34;5022695;28;20025;-87
2021/03/27 03:31:28;;;;;;;60.42;28.40;;;;;;;-0.77;100.00;98327.38;5019950;28;20061;-86
2021/03/27 03:34:36;;;;;;;63.40;28.98;;;;;;;-0.71;100.00;98339.63;5018203;28;20041;-86
2021/03/27 03:37:14;;;;;;;71.70;31.27;;;;;;;-0.81;100.00;98341.41;4991595;28;20575;-88
2021/03/27 03:39:58;;;;;;;79.70;38.92;;;;;;;-0.75;100.00;98335.25;5017394;28;20120;-87
2021/03/27 03:42:30;;;;;;;72.95;33.20;;;;;;;-0.77;100.00;98331.78;5017605;28;20026;-88
2021/03/27 03:45:20;;;;;;;53.75;25.73;;;;;;;-0.78;100.00;98335.25;5017592;28;20489;-88
2021/03/27 03:47:48;;;;;;;67.57;31.20;;;;;;;-0.80;100.00;98340.50;5000444;28;20433;-88
2021/03/27 03:50:23;;;;;;;62.00;29.63;;;;;;;-0.82;100.00;98334.41;5017498;28;20116;-89
2021/03/27 03:53:16;;;;;;;54.63;27.67;;;;;;;-0.90;100.00;98336.19;5016905;28;20053;-88
2021/03/27 03:56:04;;;;;;;;;;;;;;;-0.85;100.00;98337.03;5000939;28;20025;-87
2021/03/27 03:58:45;;;;;;;56.63;26.98;;;;;;;-0.88;100.00;98337.06;4999964;28;19917;-88
2021/03/27 04:01:38;;;;;;;72.55;31.38;;;;;;;-0.90;100.00;98333.56;5016337;28;20029;-89
2021/03/27 04:04:13;;;;;;;74.95;32.05;;;;;;;-0.89;100.00;98337.94;5000306;28;20072;-87
2021/03/27 04:06:40;;;;;;;76.85;33.53;;;;;;;-0.89;100.00;98337.94;5017311;28;20033;-87
2021/03/27 04:09:34;;;;;;;68.70;31.95;;;;;;;-0.95;100.00;98342.34;4999492;28;20029;-89
2021/03/27 04:12:18;;;;;;;72.40;30.52;;;;;;;-1.04;100.00;98327.50;5001166;28;20069;-86
2021/03/27 04:15:10;;;;;;;56.22;27.92;;;;;;;-0.92;100.00;98343.19;5000681;28;20588;-88
2021/03/27 04:18:14;;;;;;;60.45;26.95;;;;;;;-0.91;100.00;98342.31;5000474;28;20040;-88
2021/03/27 04:20:52;;;;;;;72.03;33.42;;;;;;;-0.93;100.00;98335.34;5004504;28;20029;-89
2021/03/27 04:23:36;;;;;;;72.03;32.60;;;;;;;-0.87;100.00;98346.69;5016860;28;20036;-87
2021/03/27 04:26:17;;;;;;;61.97;30.60;;;;;;;-0.86;100.00;98348.41;5015700;28;20486;-87
2021/03/27 04:29:11;;;;;;;80.03;34.72;;;;;;;-0.86;100.00;98352.81;5016827;28;20540;-87
2021/03/27 04:31:42;;;;;;;66.93;32.03;;;;;;;-0.85;100.00;98352.78;5034262;28;20036;-88
2021/03/27 04:34:11;;;;;;;72.28;33.15;;;;;;;-0.70;100.00;98359.72;5016117;28;20029;-88
2021/03/27 04:36:39;;;;;;;91.15;41.85;;;;;;;-0.62;100.00;98357.97;5015913;28;20025;-88
2021/03/27 04:39:22;;;;;;;101.82;40.53;;;;;;;-0.58;100.00;98352.66;5016022;28;20470;-88
2021/03/27 04:41:57;;;;;;;94.63;40.88;;;;;;;-0.48;100.00;98364.00;5016295;28;20099;-88
2021/03/27 04:44:30;;;;;;;99.90;40.83;;;;;;;-0.42;100.00;98374.47;4999592;28;20116;-88
2021/03/27 04:46:59;;;;;;;95.50;43.30;;;;;;;-0.36;100.00;98377.06;4999446;28;20037;-88
2021/03/27 04:50:04;;;;;;;84.57;38.47;;;;;;;-0.26;100.00;98373.50;4999180;28;20037;-88
2021/03/27 04:52:48;;;;;;;99.25;43.70;;;;;;;-0.19;99.20;98377.88;4993136;28;20045;-89
2021/03/27 04:55:22;;;;;;;163.48;62.38;;;;;;;-0.16;98.87;98376.97;5016208;28;20018;-87
2021/03/27 04:58:06;;;;;;;105.72;45.35;;;;;;;-0.04;99.02;98375.13;5015751;28;20065;-88
2021/03/27 05:00:40;;;;;;;122.35;53.70;;;;;;;0.73;97.15;98378.84;5016753;28;20028;-88
2021/03/27 05:03:13;;;;;;;125.55;55.28;;;;;;;1.08;93.66;98379.34;5015899;28;20084;-87
2021/03/27 05:05:53;;;;;;;107.88;48.28;;;;;;;1.23;91.32;98378.28;5016479;28;20037;-88
2021/03/27 05:08:41;;;;;;;99.13;46.10;;;;;;;1.35;91.45;98383.44;4992157;28;20040;-88
2021/03/27 05:11:33;;;;;;;100.90;50.75;;;;;;;2.27;87.08;98370.69;5015332;28;20644;-88
2021/03/27 05:14:18;;;;;;;114.78;52.67;;;;;;;3.02;81.35;98381.69;4999735;28;20021;-88
2021/03/27 05:16:53;;;;;;;107.28;51.80;;;;;;;3.51;78.84;98371.00;4999310;28;20072;-88
2021/03/27 05:19:32;;;;;;;114.32;49.67;;;;;;;3.42;78.79;98375.63;4988540;28;20026;-88
2021/03/27 05:22:19;;;;;;;112.07;51.05;;;;;;;4.20;76.42;98386.25;4996218;28;20021;-89
2021/03/27 05:25:21;;;;;;;87.78;42.78;;;;;;;5.00;71.88;98392.19;5016235;28;20033;-89
2021/03/27 05:28:31;;;;;;;71.75;39.28;;;;;;;6.77;64.85;98397.50;5012198;28;20121;-89
2021/03/27 05:31:12;;;;;;;70.47;36.42;;;;;;;8.21;59.40;98399.41;4992975;28;20128;-88
2021/03/27 05:34:07;;;;;;;65.95;35.85;;;;;;;9.55;55.02;98403.56;4999972;28;20029;-88
2021/03/27 05:36:44;;;;;;;76.28;35.20;;;;;;;11.03;48.15;98407.25;5002454;28;20025;-90
2021/03/27 05:39:25;;;;;;;78.00;39.25;;;;;;;11.50;45.54;98404.81;5016217;28;20047;-90
2021/03/27 05:42:20;;;;;;;64.38;36.17;;;;;;;11.85;44.48;98401.19;5016592;28;20036;-90
2021/03/27 05:45:02;;;;;;;61.10;36.03;;;;;;;12.54;43.16;98402.78;5017351;28;20056;-90
2021/03/27 05:47:46;;;;;;;65.33;39.17;;;;;;;13.28;41.52;98411.91;5008654;28;20030;-90
2021/03/27 05:50:12;;;;;;;71.22;39.35;;;;;;;14.23;38.81;98399.78;5008280;28;20030;-90
2021/03/27 05:53:16;;;;;;;80.22;42.88;;;;;;;14.67;37.03;98394.28;5018210;28;20050;-92
2021/03/27 05:55:58;;;;;;;81.45;43.58;;;;;;;15.25;36.26;98402.09;5019603;28;20025;-91
2021/03/27 05:58:42;;;;;;;73.45;42.70;;;;;;;15.11;36.68;98405.69;5003382;28;20580;-90
2021/03/27 06:01:31;;;;;;;77.63;42.60;;;;;;;15.60;34.89;98387.97;5015310;28;20091;-92
2021/03/27 06:04:16;;;;;;;82.43;45.50;;;;;;;15.36;35.29;98403.09;5016812;28;20036;-90
2021/03/27 06:06:59;;;;;;;85.72;47.15;;;;;;;15.76;34.82;98397.69;5013571;28;20083;-89
2021/03/27 06:09:37;;;;;;;109.88;54.88;;;;;;;15.88;33.74;98399.53;5036735;28;20053;-89
2021/03/27 06:12:30;;;;;;;83.93;47.97;;;;;;;16.24;33.06;98392.41;5008343;28;20072;-87
2021/03/27 06:15:17;;;;;;;98.70;57.95;;;;;;;14.97;34.85;98403.94;5019070;28;20043;-89
2021/03/27 06:17:58;;;;;;;96.43;53.70;;;;;;;15.48;35.21;98412.19;5017948;28;20417;-89
2021/03/27 06:20:37;;;;;;;93.40;54.67;;;;;;;15.42;34.96;98399.09;5018069;28;20033;-88
2021/03/27 06:23:15;;;;;;;92.93;53.13;;;;;;;16.56;33.55;98400.06;5016465;28;20024;-77
2021/03/27 06:26:07;;;;;;;90.43;53.63;;;;;;;15.33;34.93;98406.00;5015815;28;20025;-80
2021/03/27 06:32:30;;;;;;;92.10;53.72;;;;;;;17.30;31.81;98403.50;5026188;28;20044;-77
2021/03/27 06:34:59;;;;;;;86.53;51.67;;;;;;;16.59;32.99;98399.84;5028853;28;20100;-79
2021/03/27 06:37:31;;;;;;;91.93;53.95;;;;;;;16.06;34.07;98404.50;5016174;28;20044;-80
2021/03/27 06:40:24;;;;;;;84.68;50.20;;;;;;;17.04;32.21;98403.75;5015526;28;20159;-79
2021/03/27 06:43:15;;;;;;;79.97;44.97;;;;;;;17.69;31.75;98406.88;5014435;28;20030;-80
2021/03/27 06:45:50;;;;;;;75.18;43.97;;;;;;;18.14;31.40;98395.19;4999299;28;20481;-78
2021/03/27 06:48:47;;;;;;;76.43;42.28;;;;;;;17.46;31.90;98399.63;5015008;28;20462;-78
2021/03/27 06:51:40;;;;;;;75.13;42.83;;;;;;;16.90;32.70;98403.88;5013451;28;20045;-78
2021/03/27 06:54:43;;;;;;;76.63;46.90;;;;;;;17.71;32.12;98402.22;5015331;28;20512;-77
2021/03/27 06:57:45;;;;;;;114.63;60.40;;;;;;;17.86;31.98;98396.50;5014710;28;20033;-76
2021/03/27 07:00:33;;;;;;;128.60;69.70;;;;;;;18.45;32.09;98382.78;5034118;28;20076;-80
2021/03/27 07:03:05;;;;;;;128.30;69.78;;;;;;;18.90;31.55;98406.16;5023142;28;20041;-76
2021/03/27 07:06:01;;;;;;;119.22;67.35;;;;;;;19.14;31.81;98402.41;5033252;28;20566;-88
2021/03/27 07:08:45;;;;;;;104.13;54.33;;;;;;;20.00;30.63;98400.47;5014733;28;20071;-77
2021/03/27 07:11:40;;;;;;;103.13;62.17;;;;;;;19.89;30.56;98401.41;5030770;28;20455;-77
2021/03/27 07:14:11;;;;;;;104.43;60.22;;;;;;;19.37;30.84;98398.66;5030469;28;20025;-78
2021/03/27 07:16:42;;;;;;;89.95;53.50;;;;;;;20.54;29.39;98394.81;5009743;28;20493;-78
2021/03/27 07:19:29;;;;;;;100.50;56.33;;;;;;;19.35;31.26;98404.19;4997147;28;20029;-80
2021/03/27 07:22:16;;;;;;;126.90;78.85;;;;;;;19.78;31.04;98408.78;5013225;28;20021;-79
2021/03/27 07:25:22;;;;;;;100.85;60.45;;;;;;;19.53;31.25;98404.56;5014192;28;20017;-80
2021/03/27 07:28:11;;;;;;;89.43;54.92;;;;;;;19.72;31.40;98410.13;5014057;28;20109;-79
2021/03/27 07:31:08;;;;;;;93.28;56.20;;;;;;;20.11;31.51;98416.72;5014239;28;20028;-79
2021/03/27 07:34:01;;;;;;;94.05;52.30;;;;;;;19.27;31.46;98409.41;5031504;28;20496;-78
2021/03/27 07:36:39;;;;;;;88.88;50.33;;;;;;;19.21;32.22;98409.06;5010848;28;20025;-78
2021/03/27 07:39:41;;;;;;;71.82;44.60;;;;;;;19.43;30.86;98409.03;5012538;28;20033;-78
2021/03/27 07:42:40;;;;;;;72.10;41.20;;;;;;;19.71;29.93;98402.13;4996433;28;20025;-81
2021/03/27 07:45:32;;;;;;;79.72;43.47;;;;;;;20.49;30.09;98388.91;4996207;28;20104;-80
2021/03/27 07:48:19;;;;;;;79.03;50.97;;;;;;;20.66;30.08;98401.03;5028108;28;20026;-80
2021/03/27 07:51:09;;;;;;;80.13;48.67;;;;;;;20.42;30.37;98398.63;5031332;28;20029;-81
2021/03/27 07:53:43;;;;;;;85.75;49.42;;;;;;;20.73;31.22;98405.78;5012083;28;20481;-79
2021/03/27 07:56:18;;;;;;;69.40;38.17;;;;;;;21.25;28.35;98398.38;5011975;28;20037;-80
2021/03/27 07:59:16;;;;;;;62.72;37.50;;;;;;;23.01;26.87;98385.06;4994295;28;20504;-81
2021/03/27 08:02:22;;;;;;;60.72;37.28;;;;;;;22.45;26.19;98380.53;4967145;28;20048;-81
2021/03/27 08:05:32;;;;;;;56.83;34.53;;;;;;;21.90;28.00;98379.47;5011510;28;20409;-80
2021/03/27 08:08:25;;;;;;;62.20;36.95;;;;;;;23.07;25.71;98384.44;4996464;28;20060;-79
2021/03/27 08:11:14;;;;;;;72.68;37.90;;;;;;;22.74;26.71;98380.44;4993595;28;20033;-79
2021/03/27 08:13:57;;;;;;;58.17;36.30;;;;;;;22.76;27.21;98381.16;4976758;28;20028;-80
2021/03/27 08:16:53;;;;;;;52.08;33.80;;;;;;;22.20;26.04;98369.41;4993991;28;20060;-79
2021/03/27 08:19:37;;;;;;;61.22;35.45;;;;;;;23.34;26.14;98376.22;5010246;28;20026;-78
2021/03/27 08:22:24;;;;;;;54.67;33.25;;;;;;;23.85;24.48;98375.53;5009750;28;20033;-78
2021/03/27 08:25:05;;;;;;;64.25;34.35;;;;;;;24.68;24.79;98377.69;5011208;28;20025;-80
2021/03/27 08:27:49;;;;;;;55.83;34.08;;;;;;;25.18;23.86;98379.66;4993836;28;20026;-79
2021/03/27 08:30:40;;;;;;;79.13;45.35;;;;;;;24.34;23.03;98368.59;4993629;28;20030;-80
2021/03/27 08:33:20;;;;;;;70.13;41.60;;;;;;;24.78;24.63;98369.34;4987436;28;20128;-78
2021/03/27 08:36:02;;;;;;;67.45;39.92;;;;;;;23.45;25.09;98373.28;4978407;28;20037;-78
2021/03/27 08:38:55;;;;;;;70.28;43.05;;;;;;;24.33;23.91;98363.28;5011342;28;20053;-78
2021/03/27 08:41:55;;;;;;;80.35;46.05;;;;;;;25.32;22.49;98366.16;4993767;28;20041;-77
2021/03/27 08:44:56;;;;;;;78.82;46.03;;;;;;;24.57;23.28;98366.19;5000144;28;20041;-78
2021/03/27 08:47:40;;;;;;;72.82;44.55;;;;;;;25.33;23.51;98367.88;4915591;29;20040;-86
2021/03/27 08:50:27;;;;;;;90.68;42.83;;;;;;;25.62;22.92;98358.38;5003768;28;20446;-83
2021/03/27 08:52:52;;;;;;;74.93;42.72;;;;;;;26.14;22.45;98365.25;4990232;28;20478;-78
2021/03/27 08:55:33;;;;;;;74.53;42.88;;;;;;;25.83;22.28;98356.00;5029024;28;20112;-79
2021/03/27 08:58:17;;;;;;;60.70;41.40;;;;;;;25.76;22.12;98353.09;5031118;28;20034;-79
2021/03/27 09:00:54;;;;;;;57.35;35.75;;;;;;;25.96;22.54;98350.88;5026174;28;20026;-78
2021/03/27 09:03:39;;;;;;;54.83;33.25;;;;;;;26.93;20.78;98346.06;5030872;28;20029;-78
2021/03/27 09:06:32;;;;;;;59.17;34.42;;;;;;;27.77;19.53;98347.13;5030858;28;20034;-77
2021/03/27 09:09:21;;;;;;;72.80;38.45;;;;;;;28.74;18.99;98346.25;4983997;28;20091;-76
2021/03/27 09:12:18;;;;;;;66.55;34.10;;;;;;;28.92;18.90;98338.44;4986038;28;20068;-79
2021/03/27 09:15:11;;;;;;;49.58;25.90;;;;;;;28.32;19.96;98333.09;4997375;28;20091;-79
2021/03/27 09:17:55;;;;;;;25.25;15.00;;;;;;;27.42;18.64;98329.31;4994219;28;20037;-77
2021/03/27 09:20:42;;;;;;;18.30;12.50;;;;;;;25.84;20.60;98331.13;5008785;28;20029;-76
2021/03/27 09:23:40;;;;;;;20.85;12.57;;;;;;;26.95;21.22;98329.38;5030483;28;20025;-75
2021/03/27 09:26:38;;;;;;;20.52;12.27;;;;;;;27.34;21.29;98334.88;4978827;28;20095;-75
2021/03/27 09:29:55;;;;;;;34.92;14.27;;;;;;;27.35;19.87;98334.66;4992708;28;20026;-75
2021/03/27 09:32:47;;;;;;;21.60;10.45;;;;;;;25.94;21.03;98328.22;4998353;28;20099;-77
2021/03/27 09:35:37;;;;;;;56.63;10.90;;;;;;;27.63;19.61;98328.66;4997860;28;20038;-77
2021/03/27 09:38:30;;;;;;;16.52;10.20;;;;;;;27.14;18.55;98323.47;5011855;28;20033;-78
2021/03/27 09:41:25;;;;;;;11.70;8.45;;;;;;;27.74;17.31;98309.00;5015205;28;20354;-77
2021/03/27 09:44:15;;;;;;;15.50;10.63;;;;;;;27.63;18.34;98310.28;5013916;28;20065;-78
2021/03/27 09:47:04;;;;;;;20.20;12.20;;;;;;;26.56;17.70;98301.91;5013078;28;20029;-78
2021/03/27 09:50:00;;;;;;;23.65;13.88;;;;;;;27.60;17.33;98313.41;4996626;28;20060;-82
2021/03/27 09:52:54;;;;;;;15.32;7.97;;;;;;;27.61;18.10;98308.75;5016072;28;20050;-79
2021/03/27 09:55:38;;;;;;;17.13;9.13;;;;;;;26.76;17.96;98296.84;5016221;28;20022;-83
2021/03/27 09:58:14;;;;;;;11.63;8.30;;;;;;;27.88;16.50;98299.94;5026838;28;20053;-84
2021/03/27 10:00:50;;;;;;;14.70;9.00;;;;;;;27.94;16.25;98288.19;5016029;28;20036;-80
2021/03/27 10:03:16;;;;;;;25.55;9.85;;;;;;;28.11;16.31;98294.44;5014581;28;20033;-79
2021/03/27 10:06:10;;;;;;;17.98;7.57;;;;;;;26.03;17.30;98283.31;5016709;28;20024;-81
2021/03/27 10:09:08;;;;;;;17.13;9.60;;;;;;;25.54;18.09;98278.88;5030750;28;20031;-79
2021/03/27 10:11:37;;;;;;;15.85;7.82;;;;;;;26.07;18.28;98281.94;5010862;28;20104;-78
2021/03/27 10:14:20;;;;;;;13.32;7.80;;;;;;;27.54;17.94;98291.28;5015314;28;20025;-85
2021/03/27 10:16:51;;;;;;;22.98;7.93;;;;;;;27.83;16.05;98291.41;5000232;28;20547;-85
2021/03/27 10:19:17;;;;;;;22.20;9.23;;;;;;;25.59;18.53;98280.09;5015966;28;20029;-84
2021/03/27 10:22:04;;;;;;;28.08;16.48;;;;;;;25.92;16.97;98286.41;5017159;28;20051;-85
2021/03/27 10:25:22;;;;;;;25.23;14.13;;;;;;;25.91;17.53;98270.13;5010429;28;20028;-84
2021/03/27 10:28:12;;;;;;;11.40;7.95;;;;;;;27.02;16.93;98289.19;4961161;28;20093;-88
2021/03/27 10:30:47;;;;;;;20.30;14.20;;;;;;;26.32;19.54;98283.63;5015231;28;20029;-79
2021/03/27 10:33:17;;;;;;;13.15;7.40;;;;;;;26.73;18.53;98280.75;4992264;28;20033;-78
2021/03/27 10:35:46;;;;;;;22.25;9.57;;;;;;;27.53;18.76;98297.84;4998260;28;20025;-76
2021/03/27 10:38:32;;;;;;;14.77;7.07;;;;;;;27.42;16.06;98283.47;5031496;28;20036;-76
2021/03/27 10:41:01;;;;;;;11.48;7.45;;;;;;;27.02;17.48;98278.19;5013007;28;20036;-77
2021/03/27 10:43:51;;;;;;;15.93;8.70;;;;;;;27.11;18.43;98279.00;5013721;28;20113;-76
2021/03/27 10:46:43;;;;;;;14.30;7.43;;;;;;;27.63;18.28;98270.94;5030854;28;20021;-79
2021/03/27 10:49:28;;;;;;;17.85;7.63;;;;;;;28.16;16.79;98276.31;5033094;28;20028;-77
2021/03/27 10:52:15;;;;;;;18.33;7.90;;;;;;;27.93;15.75;98268.06;5031905;28;20072;-77
2021/03/27 10:55:05;;;;;;;22.33;11.35;;;;;;;28.58;17.44;98275.66;5031100;28;20116;-76
2021/03/27 10:57:50;;;;;;;15.80;10.80;;;;;;;28.71;17.10;98272.25;5012311;28;20029;-76
2021/03/27 11:00:30;;;;;;;16.55;11.70;;;;;;;27.99;18.00;98269.25;5029433;28;20041;-76
2021/03/27 11:03:21;;;;;;;12.20;8.63;;;;;;;28.53;17.07;98272.63;5010008;28;20040;-77
2021/03/27 11:06:14;;;;;;;16.67;9.48;;;;;;;28.11;17.49;98270.53;5031439;28;20611;-77
2021/03/27 11:09:05;;;;;;;15.20;8.77;;;;;;;29.13;16.30;98269.63;5032430;28;20489;-83
2021/03/27 11:11:33;;;;;;;14.93;9.73;;;;;;;30.20;14.67;98257.56;5014078;28;20472;-78
2021/03/27 11:14:23;;;;;;;14.48;9.27;;;;;;;30.32;14.98;98250.41;5037462;28;20540;-83
2021/03/27 11:16:56;;;;;;;15.25;9.82;;;;;;;30.51;15.29;98255.25;5010370;28;20037;-82
2021/03/27 11:19:47;;;;;;;16.75;10.10;;;;;;;29.89;16.55;98248.81;5012012;28;20033;-82
2021/03/27 11:22:36;;;;;;;13.75;9.48;;;;;;;30.25;15.48;98255.03;5009811;28;20080;-78
2021/03/27 11:25:54;;;;;;;16.73;10.23;;;;;;;29.01;15.24;98227.94;5010129;28;20413;-82
2021/03/27 11:28:25;;;;;;;17.98;8.98;;;;;;;29.12;17.30;98248.63;5029267;28;20481;-82
2021/03/27 11:30:57;;;;;;;11.55;7.22;;;;;;;29.56;15.34;98235.53;4995609;28;20084;-82
2021/03/27 11:33:30;;;;;;;;;;;;;;;29.68;16.49;98246.06;5031538;28;20099;-80
2021/03/27 11:36:14;;;;;;;18.48;10.00;;;;;;;29.93;15.80;98244.59;4997692;28;19956;-80
2021/03/27 11:39:03;;;;;;;9.10;6.68;;;;;;;28.38;16.54;98234.09;5023559;28;20084;-78
2021/03/27 11:41:37;;;;;;;11.68;7.07;;;;;;;29.42;15.99;98228.19;5023652;28;20022;-80
2021/03/27 11:44:17;;;;;;;15.27;9.85;;;;;;;30.42;15.08;98234.38;4997916;28;20064;-77
2021/03/27 11:46:54;;;;;;;12.18;8.50;;;;;;;30.70;14.97;98233.44;4996240;28;20037;-77
2021/03/27 11:49:25;;;;;;;14.25;9.57;;;;;;;30.99;14.83;98227.63;4996445;28;20031;-82
2021/03/27 11:52:03;;;;;;;17.27;8.98;;;;;;;30.44;14.60;98220.34;4995837;28;20099;-82
2021/03/27 11:54:56;;;;;;;12.23;8.57;;;;;;;29.74;14.94;98218.53;4995562;28;20429;-77
2021/03/27 11:57:28;;;;;;;14.07;8.77;;;;;;;29.91;15.30;98225.47;5011797;28;20391;-81
2021/03/27 12:02:58;;;;;;;16.40;7.63;;;;;;;30.58;14.21;98213.81;5013852;28;20495;-81
2021/03/27 12:05:43;;;;;;;12.48;8.68;;;;;;;30.02;14.89;98204.75;5013418;28;20207;-78
2021/03/27 12:08:14;;;;;;;11.27;7.70;;;;;;;29.81;15.17;98213.88;5028740;28;20028;-77
2021/03/27 12:11:09;;;;;;;10.73;7.70;;;;;;;28.36;14.98;98205.88;5028321;28;20040;-77
2021/03/27 12:13:50;;;;;;;10.13;6.80;;;;;;;27.08;16.41;98207.94;4991285;28;20120;-77
2021/03/27 12:16:27;;;;;;;16.33;7.90;;;;;;;28.35;16.84;98215.22;5013466;28;20460;-78
2021/03/27 12:19:24;;;;;;;9.73;7.45;;;;;;;27.55;16.70;98196.78;5010967;28;20040;-78
2021/03/27 12:21:57;;;;;;;15.10;7.43;;;;;;;27.67;16.54;98203.53;4994505;28;20471;-77
2021/03/27 12:24:40;;;;;;;10.52;7.05;;;;;;;27.23;16.03;98195.97;5010777;28;20493;-78
2021/03/27 12:27:23;;;;;;;16.23;7.60;;;;;;;27.94;16.50;98191.91;5028599;28;20129;-78
2021/03/27 12:30:18;;;;;;;18.70;8.15;;;;;;;27.30;16.18;98182.34;5010843;28;20531;-78
2021/03/27 12:32:44;;;;;;;14.70;7.55;;;;;;;27.33;17.78;98191.09;5019230;28;20524;-78
2021/03/27 12:35:31;;;;;;;13.15;7.50;;;;;;;27.69;15.86;98193.19;5028615;28;20029;-79
2021/03/27 12:38:08;;;;;;;15.02;8.38;;;;;;;28.86;15.14;98193.19;5028003;28;20112;-78